Time;durP1;ratioP1;P1;durP2;ratioP2;P2;SDS_P1;SDS_P2;PMS_P1;PMS_P2;Temp;Humidity;BMP_temperature;BMP_pressure;BME280_temperature;BME280_humidity;BME280_pressure;Samples;Min_cycle;Max_cycle;Signal;HPM_P1;HPM_P2
2021/06/13 00:01:34;;;;;;;4.73;2.53;;;;;;;22.94;39.26;102260.16;5015729;28;20190;-73
2021/06/13 00:03:59;;;;;;;5.77;2.63;;;;;;;22.95;39.30;102266.22;5016755;28;20733;-73
2021/06/13 00:06:25;;;;;;;5.93;2.73;;;;;;;22.93;39.79;102261.00;5016954;28;20206;-73
2021/06/13 00:08:50;;;;;;;5.10;2.27;;;;;;;22.93;39.53;102270.63;5016220;28;20672;-73
2021/06/13 00:11:16;;;;;;;5.17;2.60;;;;;;;22.94;39.22;102267.13;5016140;28;20206;-73
2021/06/13 00:13:42;;;;;;;4.70;2.07;;;;;;;22.93;39.38;102268.84;5015133;28;20553;-73
2021/06/13 00:16:08;;;;;;;5.43;2.80;;;;;;;22.94;39.66;102264.50;5016733;28;20175;-73
2021/06/13 00:18:34;;;;;;;3.93;2.47;;;;;;;22.93;39.42;102263.63;5015275;28;20190;-71
2021/06/13 00:21:00;;;;;;;4.50;2.40;;;;;;;22.93;39.55;102270.63;5014975;28;20206;-73
2021/06/13 00:23:26;;;;;;;5.77;2.30;;;;;;;22.92;39.43;102264.50;5016552;28;20183;-73
2021/06/13 00:25:51;;;;;;;5.37;2.60;;;;;;;22.93;39.49;102270.63;5016107;28;20636;-74
2021/06/13 00:28:17;;;;;;;6.10;2.73;;;;;;;22.93;39.67;102270.63;5015798;28;20187;-73
2021/06/13 00:30:42;;;;;;;5.73;2.50;;;;;;;22.93;39.44;102281.06;5015399;28;20222;-74
2021/06/13 00:33:08;;;;;;;7.27;2.87;;;;;;;22.91;39.51;102274.97;5015788;28;20662;-74
2021/06/13 00:35:34;;;;;;;7.87;2.80;;;;;;;22.90;39.59;102274.13;5000122;28;20235;-74
2021/06/13 00:38:00;;;;;;;7.13;2.33;;;;;;;22.90;39.83;102270.63;5011396;28;20305;-73
2021/06/13 00:40:26;;;;;;;7.33;2.80;;;;;;;22.90;39.79;102271.50;5012210;28;20704;-72
2021/06/13 00:42:53;;;;;;;4.53;2.40;;;;;;;22.90;39.86;102281.97;5015039;28;20631;-73
2021/06/13 00:45:20;;;;;;;4.43;2.43;;;;;;;22.90;39.56;102279.34;5014789;28;20628;-73
2021/06/13 00:47:46;;;;;;;6.47;2.33;;;;;;;22.89;39.54;102280.22;5014058;28;20279;-72
2021/06/13 00:50:23;;;;;;;4.97;2.43;;;;;;;22.89;39.81;102277.63;5014050;28;20210;-73
2021/06/13 00:52:48;;;;;;;5.23;2.23;;;;;;;22.89;39.59;102276.75;5016102;28;20267;-74
2021/06/13 00:55:14;;;;;;;6.53;2.80;;;;;;;22.89;39.96;102282.84;5014852;28;20199;-73
2021/06/13 00:57:39;;;;;;;5.97;2.53;;;;;;;22.89;39.83;102274.13;5013824;28;20266;-74
2021/06/13 01:00:07;;;;;;;6.13;2.50;;;;;;;22.89;39.68;102272.41;5013472;28;20276;-73
2021/06/13 01:02:33;;;;;;;4.60;2.27;;;;;;;22.89;39.48;102272.41;5021918;28;20187;-73
2021/06/13 01:04:58;;;;;;;4.87;2.30;;;;;;;22.87;39.83;102268.91;5018902;28;20374;-72
2021/06/13 01:07:37;;;;;;;4.47;2.77;;;;;;;22.88;39.83;102275.84;5014810;28;20206;-74
2021/06/13 01:10:09;;;;;;;5.43;2.70;;;;;;;22.88;39.79;102281.09;5013219;28;20591;-73
2021/06/13 01:12:45;;;;;;;6.00;2.77;;;;;;;22.89;39.60;102287.19;5015199;28;20162;-73
2021/06/13 01:15:22;;;;;;;4.67;2.97;;;;;;;22.89;39.70;102287.19;5013712;28;20187;-73
2021/06/13 01:17:58;;;;;;;5.73;3.27;;;;;;;22.88;39.68;102283.69;5014889;28;20237;-72
2021/06/13 01:20:24;;;;;;;7.13;3.17;;;;;;;22.88;39.79;102285.47;5012681;28;20203;-73
2021/06/13 01:23:33;;;;;;;4.90;2.30;;;;;;;22.87;39.72;102288.94;5010745;28;20745;-74
2021/06/13 01:26:38;;;;;;;4.40;2.50;;;;;;;22.87;40.08;102292.44;5010479;28;20571;-74
2021/06/13 01:29:08;;;;;;;5.37;2.43;;;;;;;22.87;39.84;102302.00;5025378;28;20668;-74
2021/06/13 01:31:42;;;;;;;4.00;2.17;;;;;;;22.86;39.74;102293.31;5010599;28;20183;-73
2021/06/13 01:34:11;;;;;;;7.00;2.80;;;;;;;22.86;39.70;102295.03;4990906;28;20187;-73
2021/06/13 01:36:37;;;;;;;6.87;2.50;;;;;;;22.85;39.83;102295.94;5007911;28;20282;-74
2021/06/13 01:39:11;;;;;;;5.97;2.80;;;;;;;22.86;40.13;102297.66;5010052;28;20305;-74
2021/06/13 01:41:39;;;;;;;6.30;2.93;;;;;;;22.84;39.76;102289.81;5009334;28;20201;-74
2021/06/13 01:44:06;;;;;;;6.13;2.77;;;;;;;22.84;40.09;102286.38;5010663;28;20299;-74
2021/06/13 01:46:35;;;;;;;7.20;3.30;;;;;;;22.84;40.08;102288.97;5010404;28;20228;-74
2021/06/13 01:49:01;;;;;;;4.73;2.60;;;;;;;22.84;39.91;102288.97;5010005;28;20233;-74
2021/06/13 01:51:26;;;;;;;5.20;2.63;;;;;;;22.83;39.96;102295.94;5010185;28;20175;-73
2021/06/13 01:53:52;;;;;;;4.93;2.60;;;;;;;22.84;40.02;102291.59;5009007;28;20194;-74
2021/06/13 01:56:17;;;;;;;6.83;3.20;;;;;;;22.82;40.14;102294.22;5009984;28;20594;-74
2021/06/13 01:58:45;;;;;;;4.63;2.50;;;;;;;22.82;40.09;102291.59;5010032;28;20175;-72
2021/06/13 02:01:13;;;;;;;5.97;2.80;;;;;;;22.82;39.94;102302.03;5008720;28;20707;-74
2021/06/13 02:03:49;;;;;;;5.40;2.67;;;;;;;22.82;39.87;102298.56;5010346;28;20929;-74
2021/06/13 02:06:17;;;;;;;6.27;2.83;;;;;;;22.82;40.00;102306.41;5025257;28;20190;-74
2021/06/13 02:08:45;;;;;;;6.17;2.90;;;;;;;22.81;40.10;102312.50;5008767;28;20776;-74
2021/06/13 02:11:11;;;;;;;4.23;2.43;;;;;;;22.81;40.05;102315.13;5009423;28;20570;-74
2021/06/13 02:13:39;;;;;;;5.53;2.50;;;;;;;22.81;40.39;102322.97;5031901;28;20163;-74
2021/06/13 02:16:06;;;;;;;5.17;2.40;;;;;;;22.80;40.12;102316.88;5017518;28;20258;-74
2021/06/13 02:18:33;;;;;;;4.77;2.60;;;;;;;22.81;40.10;102322.97;5010102;28;20190;-74
2021/06/13 02:21:02;;;;;;;4.77;2.70;;;;;;;22.80;39.94;102322.09;5010191;28;20564;-74
2021/06/13 02:23:28;;;;;;;5.40;2.60;;;;;;;22.79;39.89;102328.19;5010017;28;20187;-74
2021/06/13 02:25:54;;;;;;;6.30;2.73;;;;;;;22.79;40.06;102328.19;5010108;28;20187;-73
2021/06/13 02:28:22;;;;;;;5.20;2.57;;;;;;;22.79;40.10;102322.13;4992333;28;20271;-74
2021/06/13 02:30:49;;;;;;;5.47;2.77;;;;;;;22.79;39.81;102322.13;4990070;28;20211;-73
2021/06/13 02:33:15;;;;;;;6.90;2.97;;;;;;;22.78;40.07;102321.22;4990304;28;20246;-74
2021/06/13 02:35:45;;;;;;;5.13;2.60;;;;;;;22.78;39.71;102333.44;4974402;28;20222;-74
2021/06/13 02:38:12;;;;;;;7.47;3.33;;;;;;;22.78;39.97;102333.44;5024981;28;20179;-74
2021/06/13 02:40:37;;;;;;;5.63;2.57;;;;;;;22.78;40.03;102336.06;5009502;28;20238;-73
2021/06/13 02:43:03;;;;;;;5.60;2.83;;;;;;;22.77;39.96;102329.06;5009922;28;20206;-74
2021/06/13 02:45:28;;;;;;;4.47;2.53;;;;;;;22.77;39.91;102329.06;5008556;28;20191;-74
2021/06/13 02:47:54;;;;;;;7.07;3.00;;;;;;;22.76;39.92;102338.69;5008405;28;20199;-74
2021/06/13 02:50:24;;;;;;;8.10;3.40;;;;;;;22.76;40.17;102340.41;5008225;28;20215;-73
2021/06/13 02:53:14;;;;;;;6.10;2.87;;;;;;;22.76;39.98;102343.91;5009795;28;20182;-74
2021/06/13 02:55:54;;;;;;;4.33;2.73;;;;;;;22.75;39.93;102343.91;5008684;28;20171;-74
2021/06/13 02:58:38;;;;;;;5.57;2.90;;;;;;;22.75;40.15;102343.91;5009880;28;20183;-73
2021/06/13 03:01:05;;;;;;;6.10;2.93;;;;;;;22.74;40.06;102340.41;5009735;28;20281;-74
2021/06/13 03:03:32;;;;;;;4.10;2.50;;;;;;;22.74;40.06;102348.25;5009797;28;20842;-74
2021/06/13 03:05:58;;;;;;;6.30;3.13;;;;;;;22.74;40.04;102350.03;5009614;28;20964;-74
2021/06/13 03:08:24;;;;;;;7.07;2.80;;;;;;;22.74;40.43;102355.25;5010807;28;20179;-74
2021/06/13 03:10:52;;;;;;;6.00;2.80;;;;;;;22.73;40.03;102349.13;5012937;28;20210;-74
2021/06/13 03:13:21;;;;;;;5.77;2.90;;;;;;;22.73;40.33;102354.38;5013246;28;20259;-73
2021/06/13 03:15:47;;;;;;;5.90;2.77;;;;;;;22.73;40.12;102358.72;5011774;28;20221;-74
2021/06/13 03:18:14;;;;;;;6.23;2.90;;;;;;;22.73;40.26;102361.31;5013239;28;20175;-74
2021/06/13 03:20:39;;;;;;;6.93;3.03;;;;;;;22.72;40.41;102370.03;5012737;28;20191;-74
2021/06/13 03:23:05;;;;;;;6.70;2.80;;;;;;;22.72;40.38;102370.94;5012895;28;20167;-73
2021/06/13 03:25:30;;;;;;;6.10;3.47;;;;;;;22.72;40.07;102367.44;5011523;28;20185;-74
2021/06/13 03:27:57;;;;;;;7.60;2.63;;;;;;;22.71;40.52;102358.75;4998642;28;20654;-74
2021/06/13 03:30:23;;;;;;;7.07;3.13;;;;;;;22.71;40.23;102366.59;4991505;28;20306;-74
2021/06/13 03:32:49;;;;;;;6.70;3.10;;;;;;;22.70;40.24;102356.97;4993091;28;20752;-74
2021/06/13 03:35:14;;;;;;;4.80;3.07;;;;;;;22.71;40.30;102356.13;4980652;28;20228;-74
2021/06/13 03:37:41;;;;;;;4.97;2.80;;;;;;;22.70;40.48;102353.53;5026940;28;20552;-74
2021/06/13 03:40:08;;;;;;;5.77;3.20;;;;;;;22.70;40.42;102363.97;5012327;28;20202;-74
2021/06/13 03:42:34;;;;;;;7.93;3.00;;;;;;;22.70;40.05;102356.13;5012415;28;20664;-73
2021/06/13 03:45:01;;;;;;;5.87;3.10;;;;;;;22.69;39.89;102357.03;5012621;28;20187;-73
2021/06/13 03:47:29;;;;;;;5.53;2.53;;;;;;;22.69;40.15;102360.47;5010997;28;20190;-74
2021/06/13 03:49:55;;;;;;;5.17;2.80;;;;;;;22.70;40.52;102356.13;5012084;28;20687;-74
2021/06/13 03:52:22;;;;;;;6.73;3.00;;;;;;;22.70;40.12;102363.97;5010709;28;20187;-74
2021/06/13 03:54:47;;;;;;;4.83;2.73;;;;;;;22.71;40.15;102373.53;5012377;28;20266;-73
2021/06/13 03:57:13;;;;;;;5.97;2.97;;;;;;;22.70;40.13;102372.66;5012305;28;20218;-74
2021/06/13 03:59:43;;;;;;;6.63;2.70;;;;;;;22.70;40.46;102380.50;5013128;28;20195;-73
2021/06/13 04:02:10;;;;;;;9.20;3.13;;;;;;;22.70;40.48;102375.28;5013104;28;20175;-74
2021/06/13 04:04:42;;;;;;;6.57;3.10;;;;;;;22.69;40.21;102380.53;5012487;28;20175;-73
2021/06/13 04:07:09;;;;;;;7.17;2.90;;;;;;;22.69;40.22;102373.53;5014204;28;20198;-72
2021/06/13 04:09:37;;;;;;;5.73;2.90;;;;;;;22.68;39.87;102389.22;5033587;28;20191;-73
2021/06/13 04:12:03;;;;;;;7.07;3.30;;;;;;;22.70;40.33;102390.09;5014950;28;20586;-73
2021/06/13 04:14:29;;;;;;;5.53;3.10;;;;;;;22.71;40.11;102399.66;5012293;28;20182;-74
2021/06/13 04:16:55;;;;;;;5.43;2.83;;;;;;;22.71;40.38;102397.94;5012193;28;20233;-73
2021/06/13 04:19:21;;;;;;;7.20;2.90;;;;;;;22.71;40.55;102392.72;5011271;28;20278;-73
2021/06/13 04:21:47;;;;;;;5.37;3.10;;;;;;;22.71;40.49;102392.72;5011938;28;20184;-73
2021/06/13 04:24:16;;;;;;;5.70;2.73;;;;;;;22.71;40.55;102402.28;5012268;28;20178;-72
2021/06/13 04:26:42;;;;;;;9.53;2.93;;;;;;;22.70;40.40;102397.94;5010955;28;20175;-73
2021/06/13 04:29:09;;;;;;;7.07;3.07;;;;;;;22.69;40.60;102402.28;5011294;28;20702;-73
2021/06/13 04:31:35;;;;;;;5.40;2.70;;;;;;;22.69;40.34;102398.81;5026885;28;20186;-73
2021/06/13 04:34:00;;;;;;;6.83;2.63;;;;;;;22.68;40.40;102397.94;5010259;28;20176;-73
2021/06/13 04:36:25;;;;;;;5.50;2.93;;;;;;;22.68;40.25;102408.38;4992158;28;20227;-74
2021/06/13 04:38:51;;;;;;;8.20;3.30;;;;;;;22.69;40.58;102404.03;5011493;28;20652;-73
2021/06/13 04:41:17;;;;;;;4.70;2.93;;;;;;;22.68;40.70;102397.94;5010997;28;20277;-73
2021/06/13 04:43:42;;;;;;;5.37;2.83;;;;;;;22.68;40.29;102403.16;5011555;28;20574;-73
2021/06/13 04:46:12;;;;;;;6.93;2.67;;;;;;;22.69;40.22;102404.03;5010619;28;20186;-73
2021/06/13 04:48:38;;;;;;;6.77;3.10;;;;;;;22.68;40.64;102405.78;5009901;28;20222;-72
2021/06/13 04:51:06;;;;;;;7.43;2.90;;;;;;;22.66;40.47;102397.09;5011147;28;20274;-73
2021/06/13 04:53:56;;;;;;;6.23;2.67;;;;;;;22.67;40.53;102401.44;5011248;28;20179;-73
2021/06/13 04:56:39;;;;;;;6.33;2.77;;;;;;;22.67;40.47;102400.56;5009571;28;20171;-74
2021/06/13 04:59:04;;;;;;;5.87;2.77;;;;;;;22.68;40.35;102399.66;5010794;28;20321;-74
2021/06/13 05:01:30;;;;;;;6.20;2.83;;;;;;;22.66;40.61;102391.88;5011124;28;20691;-74
2021/06/13 05:03:56;;;;;;;4.70;2.73;;;;;;;22.67;40.37;102405.78;5011099;28;20189;-74
2021/06/13 05:06:23;;;;;;;4.90;2.63;;;;;;;22.67;40.34;102409.28;5011436;28;20185;-73
2021/06/13 05:08:48;;;;;;;6.83;3.27;;;;;;;22.66;40.38;102402.31;5012201;28;20223;-73
2021/06/13 05:11:14;;;;;;;6.73;3.00;;;;;;;22.68;40.03;102412.72;5011232;28;20843;-74
2021/06/13 05:13:40;;;;;;;5.03;2.63;;;;;;;22.66;40.23;102404.03;5009719;28;20657;-74
2021/06/13 05:16:06;;;;;;;7.37;2.40;;;;;;;22.67;40.35;102397.94;5009724;28;20651;-73
2021/06/13 05:18:31;;;;;;;6.00;2.77;;;;;;;22.67;40.36;102405.78;5009570;28;20189;-73
2021/06/13 05:20:57;;;;;;;7.17;2.80;;;;;;;22.66;40.37;102397.09;5009390;28;20298;-74
2021/06/13 05:23:23;;;;;;;5.27;3.00;;;;;;;22.66;40.38;102407.53;5009945;28;20182;-73
2021/06/13 05:25:51;;;;;;;6.60;2.87;;;;;;;22.67;40.17;102408.38;5009466;28;20249;-73
2021/06/13 05:28:16;;;;;;;7.17;3.43;;;;;;;22.66;40.04;102417.09;4993740;28;20179;-73
2021/06/13 05:30:42;;;;;;;5.63;2.50;;;;;;;22.67;40.12;102411.00;4990040;28;20220;-73
2021/06/13 05:33:07;;;;;;;6.57;2.90;;;;;;;22.68;40.38;102410.13;4990960;28;20187;-74
2021/06/13 05:35:34;;;;;;;4.57;2.80;;;;;;;22.68;40.59;102416.22;4975391;28;20697;-74
2021/06/13 05:37:59;;;;;;;6.43;3.03;;;;;;;22.67;40.35;102411.00;5010547;28;20217;-74
2021/06/13 05:40:25;;;;;;;5.03;2.87;;;;;;;22.66;40.24;102414.50;5010174;28;20214;-73
2021/06/13 05:42:51;;;;;;;5.77;2.73;;;;;;;22.67;40.17;102411.88;5010560;28;20175;-73
2021/06/13 05:45:18;;;;;;;6.33;3.30;;;;;;;22.67;40.32;102411.88;5008939;28;20226;-73
2021/06/13 05:47:43;;;;;;;6.77;3.17;;;;;;;22.67;40.42;102405.78;5025244;28;20186;-73
2021/06/13 05:50:10;;;;;;;4.50;2.70;;;;;;;22.68;40.20;102412.72;5009976;28;20210;-73
2021/06/13 05:52:36;;;;;;;4.97;2.80;;;;;;;22.67;40.06;102416.22;5011011;28;20290;-73
2021/06/13 05:55:01;;;;;;;6.80;2.87;;;;;;;22.67;40.22;102421.44;5010329;28;20305;-73
2021/06/13 05:57:34;;;;;;;8.07;3.53;;;;;;;22.68;40.06;102423.19;5010561;28;20179;-72
2021/06/13 06:00:02;;;;;;;7.20;2.97;;;;;;;22.68;40.25;102417.97;5010200;28;20218;-73
2021/06/13 06:02:27;;;;;;;7.27;2.93;;;;;;;22.68;40.29;102431.91;5008129;28;20723;-72
2021/06/13 06:04:53;;;;;;;6.40;2.70;;;;;;;22.67;40.04;102427.56;5026474;28;20179;-73
2021/06/13 06:07:18;;;;;;;7.87;3.30;;;;;;;22.68;39.95;102436.25;5012677;28;20520;-72
2021/06/13 06:09:43;;;;;;;7.63;2.97;;;;;;;22.67;40.54;102431.91;5009366;28;20215;-73
2021/06/13 06:12:09;;;;;;;5.67;3.17;;;;;;;22.68;40.10;102436.25;5009980;28;20187;-73
2021/06/13 06:14:35;;;;;;;6.80;3.10;;;;;;;22.66;40.06;102438.88;5008772;28;20175;-72
2021/06/13 06:17:00;;;;;;;5.37;3.00;;;;;;;22.66;40.18;102451.06;5008799;28;20179;-73
2021/06/13 06:19:25;;;;;;;4.47;2.87;;;;;;;22.67;40.16;102445.84;5008338;28;20680;-72
2021/06/13 06:21:50;;;;;;;5.37;3.10;;;;;;;22.66;40.34;102451.94;5010019;28;20178;-73
2021/06/13 06:24:16;;;;;;;5.27;2.90;;;;;;;22.66;40.32;102451.94;5010032;28;20222;-72
2021/06/13 06:26:41;;;;;;;6.03;2.93;;;;;;;22.66;40.40;102459.78;5005940;28;20176;-72
2021/06/13 06:29:06;;;;;;;5.33;3.00;;;;;;;22.67;40.33;102460.63;5005127;28;20215;-73
2021/06/13 06:31:31;;;;;;;5.90;2.90;;;;;;;22.68;40.50;102470.19;4990465;28;20686;-72
2021/06/13 06:33:57;;;;;;;7.20;3.33;;;;;;;22.68;40.32;102464.97;4990497;28;20188;-73
2021/06/13 06:36:22;;;;;;;6.37;2.90;;;;;;;22.67;40.16;102463.25;4980522;28;20233;-73
2021/06/13 06:38:47;;;;;;;6.90;2.93;;;;;;;22.67;40.45;102461.50;5009860;28;20179;-73
2021/06/13 06:41:12;;;;;;;6.90;3.30;;;;;;;22.66;40.15;102462.41;5009808;28;20274;-73
2021/06/13 06:43:38;;;;;;;5.37;3.20;;;;;;;22.66;40.07;102465.00;5013300;28;20211;-73
2021/06/13 06:46:04;;;;;;;5.80;3.00;;;;;;;22.66;40.25;102456.28;5013776;28;20270;-73
2021/06/13 06:48:29;;;;;;;10.43;3.30;;;;;;;22.66;40.17;102456.28;5012021;28;20197;-73
2021/06/13 06:50:54;;;;;;;7.07;3.03;;;;;;;22.67;40.28;102465.88;5013240;28;20202;-73
2021/06/13 06:53:19;;;;;;;6.33;3.20;;;;;;;22.66;40.52;102467.63;5012275;28;20179;-73
2021/06/13 06:55:45;;;;;;;5.87;3.00;;;;;;;22.65;40.07;102465.88;5013640;28;20171;-73
2021/06/13 06:58:10;;;;;;;7.73;3.40;;;;;;;22.67;39.98;102471.09;5013710;28;20599;-73
2021/06/13 07:00:35;;;;;;;9.80;3.33;;;;;;;22.66;40.18;102479.81;5013128;28;20687;-72
2021/06/13 07:03:00;;;;;;;7.33;3.40;;;;;;;22.67;39.98;102482.41;5012006;28;20210;-72
2021/06/13 07:05:25;;;;;;;6.70;3.00;;;;;;;22.68;39.89;102484.16;5013484;28;20171;-72
2021/06/13 07:07:51;;;;;;;6.70;2.90;;;;;;;22.68;40.04;102486.75;5013238;28;20179;-73
2021/06/13 07:10:16;;;;;;;7.50;3.00;;;;;;;22.69;39.71;102492.88;5011555;28;20222;-73
2021/06/13 07:12:42;;;;;;;8.03;3.37;;;;;;;22.70;40.20;102489.38;5013292;28;20179;-72
2021/06/13 07:15:08;;;;;;;7.30;3.50;;;;;;;22.69;39.67;102500.72;5013193;28;20175;-73
2021/06/13 07:17:35;;;;;;;6.37;3.33;;;;;;;22.70;40.19;102505.03;5012781;28;20574;-73
2021/06/13 07:20:01;;;;;;;4.90;3.00;;;;;;;22.70;39.86;102510.28;5011329;28;20195;-73
2021/06/13 07:22:26;;;;;;;6.47;3.33;;;;;;;22.69;39.82;102511.16;5012898;28;20175;-73
2021/06/13 07:24:56;;;;;;;5.63;3.10;;;;;;;22.69;39.80;102498.94;5011856;28;20278;-72
2021/06/13 07:27:22;;;;;;;7.07;3.20;;;;;;;22.71;39.93;102499.81;5003457;28;20314;-73
2021/06/13 07:29:47;;;;;;;5.67;2.50;;;;;;;22.71;39.81;102499.81;4992960;28;20669;-73
2021/06/13 07:32:12;;;;;;;4.97;3.03;;;;;;;22.72;39.91;102503.28;4993014;28;20221;-72
2021/06/13 07:34:38;;;;;;;6.87;3.30;;;;;;;22.72;40.12;102518.97;4974552;28;20237;-73
2021/06/13 07:37:05;;;;;;;6.33;3.27;;;;;;;22.73;39.63;102518.06;5007405;28;20305;-73
2021/06/13 07:39:30;;;;;;;6.33;3.27;;;;;;;22.72;40.09;102525.06;5012297;28;20199;-73
2021/06/13 07:41:57;;;;;;;5.13;2.77;;;;;;;22.72;39.90;102538.13;5012661;28;20183;-73
2021/06/13 07:44:23;;;;;;;7.33;3.33;;;;;;;22.73;39.79;102534.63;5012825;28;20258;-73
2021/06/13 07:46:48;;;;;;;6.80;3.30;;;;;;;22.74;39.99;102536.38;5012504;28;20313;-72
2021/06/13 07:49:13;;;;;;;6.03;3.20;;;;;;;22.74;39.75;102533.75;5013902;28;20549;-73
2021/06/13 07:51:39;;;;;;;6.33;3.27;;;;;;;22.74;39.91;102551.19;5013887;28;20270;-72
2021/06/13 07:54:04;;;;;;;5.60;3.03;;;;;;;22.80;39.90;102543.31;5011483;28;20652;-70
2021/06/13 07:56:30;;;;;;;17.63;4.73;;;;;;;22.81;39.12;102550.28;5013397;28;20190;-72
2021/06/13 07:58:55;;;;;;;20.30;4.77;;;;;;;22.66;38.54;102547.72;5022276;28;20186;-72
2021/06/13 08:01:20;;;;;;;13.60;4.77;;;;;;;22.56;38.72;102539.03;5011757;28;20234;-70
2021/06/13 08:03:46;;;;;;;15.10;4.37;;;;;;;22.54;38.48;102539.91;4994232;28;20630;-76
2021/06/13 08:06:11;;;;;;;17.20;4.00;;;;;;;22.59;38.82;102544.25;4993252;28;20234;-73
2021/06/13 08:08:36;;;;;;;12.00;4.07;;;;;;;22.65;38.98;102553.84;4993038;28;20179;-73
2021/06/13 08:11:04;;;;;;;12.73;4.50;;;;;;;22.67;39.10;102550.34;5001253;28;20206;-75
2021/06/13 08:13:29;;;;;;;15.03;3.87;;;;;;;22.69;39.14;102561.63;5015938;28;20167;-74
2021/06/13 08:15:55;;;;;;;13.37;4.40;;;;;;;22.70;39.03;102567.75;5016466;28;20181;-74
2021/06/13 08:18:20;;;;;;;11.57;3.53;;;;;;;22.70;39.30;102565.97;5016684;28;20262;-75
2021/06/13 08:20:45;;;;;;;12.90;3.47;;;;;;;22.71;39.16;102559.91;5015516;28;20262;-74
2021/06/13 08:23:11;;;;;;;9.03;3.60;;;;;;;22.72;39.33;102572.09;5016570;28;20179;-73
2021/06/13 08:25:36;;;;;;;12.67;3.67;;;;;;;22.73;39.37;102573.81;5015971;28;20781;-74
2021/06/13 08:28:02;;;;;;;12.57;3.73;;;;;;;22.74;39.24;102577.31;5031489;28;20688;-74
2021/06/13 08:30:27;;;;;;;7.87;3.10;;;;;;;22.74;39.16;102572.94;5014971;28;20238;-73
2021/06/13 08:32:53;;;;;;;6.80;3.47;;;;;;;22.75;39.09;102585.13;5014175;28;20263;-74
2021/06/13 08:35:18;;;;;;;8.40;3.50;;;;;;;22.77;39.22;102582.50;4996668;28;20254;-73
2021/06/13 08:37:44;;;;;;;8.30;3.80;;;;;;;22.76;39.32;102581.66;5015657;28;20182;-74
2021/06/13 08:40:11;;;;;;;7.67;3.03;;;;;;;22.77;39.58;102588.63;5014667;28;20248;-74
2021/06/13 08:42:38;;;;;;;10.37;3.73;;;;;;;22.77;39.26;102580.78;5016274;28;20261;-74
2021/06/13 08:45:05;;;;;;;7.50;3.33;;;;;;;22.78;39.45;102581.66;5015339;28;20171;-74
2021/06/13 08:47:31;;;;;;;8.07;3.90;;;;;;;22.79;39.59;102588.63;5014739;28;20330;-74
2021/06/13 08:49:56;;;;;;;8.60;3.60;;;;;;;22.79;39.49;102594.69;5013756;28;20214;-74
2021/06/13 08:52:21;;;;;;;7.67;3.90;;;;;;;22.79;39.56;102594.69;5016517;28;20269;-73
2021/06/13 08:54:47;;;;;;;6.67;3.33;;;;;;;22.80;39.30;102599.09;5015256;28;20182;-74
2021/06/13 08:57:15;;;;;;;9.57;3.20;;;;;;;22.83;39.71;102611.28;5015156;28;20187;-74
2021/06/13 08:59:42;;;;;;;8.93;3.60;;;;;;;22.82;39.53;102607.78;5013688;28;20198;-74
2021/06/13 09:02:08;;;;;;;6.63;3.13;;;;;;;22.82;39.37;102610.38;5012288;28;20187;-74
2021/06/13 09:04:35;;;;;;;6.20;3.00;;;;;;;22.83;39.58;102606.88;5014050;28;20182;-73
2021/06/13 09:07:09;;;;;;;8.37;3.27;;;;;;;22.84;39.39;102611.25;5013814;28;20206;-73
2021/06/13 09:09:34;;;;;;;5.80;3.27;;;;;;;22.85;39.59;102606.91;5014519;28;20202;-73
2021/06/13 09:12:04;;;;;;;10.10;3.13;;;;;;;22.84;39.45;102603.41;5013718;28;20658;-73
2021/06/13 09:14:37;;;;;;;7.37;3.37;;;;;;;22.86;39.80;102609.50;5012783;28;20237;-73
2021/06/13 09:17:15;;;;;;;7.07;3.60;;;;;;;22.86;39.27;102619.97;5014017;28;20241;-73
2021/06/13 09:20:08;;;;;;;7.87;3.50;;;;;;;22.90;39.41;102628.66;5004546;28;20199;-73
2021/06/13 09:22:35;;;;;;;7.00;3.70;;;;;;;22.88;39.44;102622.56;5009005;28;20645;-73
2021/06/13 09:25:07;;;;;;;7.03;3.50;;;;;;;22.89;39.28;102619.09;4993799;28;20176;-73
2021/06/13 09:27:32;;;;;;;7.93;3.47;;;;;;;22.90;39.76;102620.81;5004140;28;20277;-73
2021/06/13 09:29:57;;;;;;;6.53;3.40;;;;;;;22.89;39.56;102633.03;5012683;28;20289;-73
2021/06/13 09:32:22;;;;;;;6.53;3.27;;;;;;;22.89;39.41;102640.88;4998981;28;20203;-73
2021/06/13 09:35:21;;;;;;;6.87;3.80;;;;;;;22.89;39.51;102635.66;4991297;28;20238;-73
2021/06/13 09:38:02;;;;;;;6.60;3.47;;;;;;;22.88;39.59;102641.72;4993577;28;20172;-73
2021/06/13 09:40:28;;;;;;;5.50;3.37;;;;;;;22.88;39.58;102643.47;5000488;28;20187;-73
2021/06/13 09:42:54;;;;;;;7.70;3.73;;;;;;;22.88;39.34;102641.72;5012011;28;20590;-73
2021/06/13 09:45:22;;;;;;;7.70;3.57;;;;;;;22.89;39.39;102635.66;5013079;28;20191;-73
2021/06/13 09:47:59;;;;;;;8.97;3.20;;;;;;;22.90;39.44;102637.38;5011292;28;20191;-74
2021/06/13 09:50:43;;;;;;;8.47;4.00;;;;;;;22.93;39.28;102639.97;5012230;28;20689;-73
2021/06/13 09:53:24;;;;;;;7.80;4.00;;;;;;;22.94;39.36;102638.22;5030539;28;20175;-74
2021/06/13 09:56:02;;;;;;;9.57;4.07;;;;;;;22.95;39.49;102640.84;5051921;28;20363;-73
2021/06/13 09:58:28;;;;;;;6.13;3.30;;;;;;;22.96;39.28;102649.53;5029439;28;20253;-75
2021/06/13 10:00:53;;;;;;;6.77;3.80;;;;;;;22.96;39.63;102645.19;5028296;28;20203;-73
2021/06/13 10:03:24;;;;;;;9.50;4.20;;;;;;;22.98;39.52;102642.59;5012573;28;20678;-73
2021/06/13 10:05:56;;;;;;;8.57;3.93;;;;;;;23.00;39.84;102639.09;5014056;28;20249;-72
2021/06/13 10:08:25;;;;;;;8.10;3.60;;;;;;;23.02;39.85;102645.16;5013805;28;20236;-75
2021/06/13 10:10:53;;;;;;;8.23;3.37;;;;;;;22.99;39.21;102637.34;5025788;28;20211;-73
2021/06/13 10:13:19;;;;;;;10.13;3.63;;;;;;;22.97;39.78;102640.84;4998862;28;20676;-74
2021/06/13 10:15:50;;;;;;;9.03;4.40;;;;;;;22.96;39.72;102636.47;5007471;28;20176;-73
2021/06/13 10:18:16;;;;;;;7.20;3.83;;;;;;;22.97;39.99;102635.63;5003540;28;20215;-72
2021/06/13 10:20:41;;;;;;;6.77;4.10;;;;;;;22.96;40.57;102641.69;5001738;28;20293;-77
2021/06/13 10:23:06;;;;;;;8.87;3.70;;;;;;;22.98;40.75;102637.34;5008338;28;20186;-76
2021/06/13 10:25:32;;;;;;;8.43;3.60;;;;;;;23.03;40.81;102628.63;5001805;28;20191;-76
2021/06/13 10:27:58;;;;;;;8.27;4.17;;;;;;;23.08;40.46;102641.69;5011155;28;20190;-77
2021/06/13 10:30:23;;;;;;;7.37;4.00;;;;;;;23.11;40.13;102644.28;5012703;28;20212;-74
2021/06/13 10:32:49;;;;;;;9.17;3.87;;;;;;;23.12;40.42;102644.28;5003288;28;20187;-72
2021/06/13 10:35:16;;;;;;;7.80;3.80;;;;;;;23.12;40.25;102644.28;4993192;28;20317;-72
2021/06/13 10:37:41;;;;;;;6.87;3.77;;;;;;;23.14;40.20;102639.03;5011080;28;20187;-73
2021/06/13 10:40:07;;;;;;;7.27;3.87;;;;;;;23.15;40.22;102644.25;4998084;28;20202;-73
2021/06/13 10:42:36;;;;;;;5.87;3.60;;;;;;;23.18;39.98;102641.66;5012882;28;20632;-73
2021/06/13 10:45:03;;;;;;;9.00;3.83;;;;;;;23.20;39.78;102650.38;5014424;28;20185;-72
2021/06/13 10:47:30;;;;;;;5.40;3.30;;;;;;;23.15;39.53;102646.03;5013087;28;20229;-73
2021/06/13 10:49:55;;;;;;;9.07;3.87;;;;;;;23.15;39.65;102646.03;5002579;28;20207;-72
2021/06/13 10:52:22;;;;;;;5.53;3.57;;;;;;;23.16;39.81;102655.59;5021142;28;20237;-72
2021/06/13 10:54:53;;;;;;;7.03;3.73;;;;;;;23.16;39.53;102642.53;5017223;28;20277;-74
2021/06/13 10:57:18;;;;;;;6.37;3.63;;;;;;;23.14;39.65;102658.22;5014297;28;20307;-75
2021/06/13 10:59:45;;;;;;;7.90;3.63;;;;;;;23.12;40.07;102654.75;5012225;28;20191;-75
2021/06/13 11:02:17;;;;;;;6.47;3.70;;;;;;;23.16;40.49;102637.31;5011648;28;20280;-73
2021/06/13 11:05:01;;;;;;;4.83;3.33;;;;;;;23.20;40.10;102653.00;5010892;28;20233;-73
2021/06/13 11:07:35;;;;;;;5.97;3.50;;;;;;;23.22;40.03;102645.16;5011802;28;20595;-74
2021/06/13 11:13:00;;;;;;;10.17;3.47;;;;;;;23.21;40.08;102646.03;5012949;28;20286;-75
2021/06/13 11:15:31;;;;;;;5.77;3.70;;;;;;;23.22;40.10;102643.41;5012579;28;20215;-75
2021/06/13 11:18:01;;;;;;;6.83;3.87;;;;;;;23.22;39.96;102650.38;5012927;28;20175;-74
2021/06/13 11:22:56;;;;;;;6.73;4.00;;;;;;;23.22;40.12;102653.00;5012949;28;20195;-75
2021/06/13 11:25:25;;;;;;;7.17;3.40;;;;;;;23.22;40.06;102660.84;5012427;28;20183;-75
2021/06/13 11:28:10;;;;;;;6.37;3.83;;;;;;;23.21;40.06;102664.34;5011166;28;20179;-75
2021/06/13 11:30:40;;;;;;;6.33;3.53;;;;;;;23.21;39.83;102661.72;5011770;28;20215;-75
2021/06/13 11:33:06;;;;;;;6.67;3.93;;;;;;;23.21;39.78;102652.13;5012681;28;20229;-75